Time;durP1;ratioP1;P1;durP2;ratioP2;P2;SDS_P1;SDS_P2;PMS_P1;PMS_P2;Temp;Humidity;BMP_temperature;BMP_pressure;BME280_temperature;BME280_humidity;BME280_pressure;Samples;Min_cycle;Max_cycle;Signal;HPM_P1;HPM_P2
2021/07/01 00:01:14;;;;;;;22.55;13.45;;;14.50;99.90;;;;;;5126465;28;20215;-72
2021/07/01 00:03:40;;;;;;;28.60;14.30;;;14.60;99.90;;;;;;5129047;28;20155;-72
2021/07/01 00:06:06;;;;;;;22.85;12.32;;;14.60;99.90;;;;;;5129049;28;20177;-72
2021/07/01 00:08:32;;;;;;;21.77;14.38;;;14.50;99.90;;;;;;5129028;28;20167;-72
2021/07/01 00:10:57;;;;;;;23.58;13.25;;;14.40;99.90;;;;;;5108176;28;20176;-73
2021/07/01 00:13:23;;;;;;;27.77;13.40;;;14.30;99.90;;;;;;5128773;28;20170;-72
2021/07/01 00:15:49;;;;;;;31.55;12.75;;;14.40;99.90;;;;;;5129052;28;20170;-72
2021/07/01 00:18:15;;;;;;;25.50;14.10;;;14.40;99.90;;;;;;5128799;28;20186;-72
2021/07/01 00:20:41;;;;;;;25.73;13.20;;;14.40;99.90;;;;;;5126273;28;20166;-73
2021/07/01 00:23:07;;;;;;;23.00;13.25;;;14.40;99.90;;;;;;5128163;28;20163;-73
2021/07/01 00:25:33;;;;;;;19.58;11.93;;;14.40;99.90;;;;;;5128886;28;20165;-73
2021/07/01 00:27:59;;;;;;;26.48;12.65;;;14.50;99.90;;;;;;5128840;28;20163;-72
2021/07/01 00:30:25;;;;;;;21.80;11.68;;;14.40;99.90;;;;;;5126427;28;20254;-72
2021/07/01 00:32:51;;;;;;;23.17;12.65;;;14.40;99.90;;;;;;5128072;28;20245;-73
2021/07/01 00:35:17;;;;;;;20.35;13.02;;;14.50;99.90;;;;;;5128306;28;20499;-72
2021/07/01 00:37:43;;;;;;;21.63;12.10;;;14.50;99.90;;;;;;5128516;28;20222;-72
2021/07/01 00:40:11;;;;;;;24.58;12.32;;;14.40;99.90;;;;;;5109573;28;20162;-72
2021/07/01 00:42:38;;;;;;;20.80;11.65;;;14.40;99.90;;;;;;5108274;28;20171;-73
2021/07/01 00:45:06;;;;;;;22.25;11.65;;;14.50;99.90;;;;;;5128458;28;20624;-73
2021/07/01 00:47:32;;;;;;;18.88;12.20;;;14.50;99.90;;;;;;5128535;28;20165;-73
2021/07/01 00:50:02;;;;;;;21.38;11.27;;;14.50;99.90;;;;;;5128219;28;20159;-73
2021/07/01 00:52:27;;;;;;;20.05;11.48;;;14.50;99.90;;;;;;5125414;28;20209;-72
2021/07/01 00:54:53;;;;;;;21.23;11.60;;;14.40;99.90;;;;;;5128168;28;20170;-72
2021/07/01 00:57:19;;;;;;;25.95;11.95;;;14.40;99.90;;;;;;5128083;28;20179;-72
2021/07/01 00:59:45;;;;;;;22.55;11.02;;;14.40;99.90;;;;;;5128264;28;20526;-73
2021/07/01 01:02:11;;;;;;;22.55;10.85;;;14.40;99.90;;;;;;5125086;28;20158;-73
2021/07/01 01:04:36;;;;;;;23.15;11.63;;;14.40;99.90;;;;;;5128193;28;20214;-72
2021/07/01 01:07:03;;;;;;;23.55;10.40;;;14.40;99.90;;;;;;5128230;28;20534;-73
2021/07/01 01:09:29;;;;;;;25.98;11.13;;;14.50;99.90;;;;;;5127689;28;20185;-72
2021/07/01 01:11:55;;;;;;;22.05;11.45;;;14.50;99.90;;;;;;5125211;28;20170;-72
2021/07/01 01:14:20;;;;;;;20.35;10.50;;;14.40;99.90;;;;;;5127779;28;20170;-72
2021/07/01 01:16:46;;;;;;;28.95;11.07;;;14.40;99.90;;;;;;5127921;28;20197;-72
2021/07/01 01:19:12;;;;;;;25.02;10.85;;;14.40;99.90;;;;;;5127683;28;20155;-73
2021/07/01 01:21:37;;;;;;;22.65;11.18;;;14.40;99.90;;;;;;5125173;28;20253;-73
2021/07/01 01:24:05;;;;;;;16.27;10.30;;;14.40;99.90;;;;;;5109195;28;20166;-72
2021/07/01 01:26:31;;;;;;;22.50;10.57;;;14.50;99.90;;;;;;5128004;28;20151;-72
2021/07/01 01:28:57;;;;;;;25.08;11.35;;;14.40;99.90;;;;;;5127740;28;20162;-72
2021/07/01 01:31:23;;;;;;;24.30;10.73;;;14.40;99.90;;;;;;5125012;28;20163;-72
2021/07/01 01:33:53;;;;;;;19.10;11.35;;;14.30;99.90;;;;;;5127569;28;20221;-73
2021/07/01 01:36:18;;;;;;;23.10;11.23;;;14.40;99.90;;;;;;5109021;28;20158;-72
2021/07/01 01:38:44;;;;;;;22.60;11.95;;;14.40;99.90;;;;;;5127362;28;20277;-73
2021/07/01 01:41:10;;;;;;;19.55;11.18;;;14.40;99.90;;;;;;5124762;28;20162;-73
2021/07/01 01:43:35;;;;;;;20.83;12.20;;;14.40;99.90;;;;;;5127343;28;20585;-73
2021/07/01 01:46:01;;;;;;;22.70;11.48;;;14.50;99.90;;;;;;5127375;28;20636;-72
2021/07/01 01:48:27;;;;;;;22.75;12.25;;;14.50;99.90;;;;;;5127188;28;20158;-73
2021/07/01 01:50:53;;;;;;;27.48;12.40;;;14.60;99.90;;;;;;5106205;28;20533;-72
2021/07/01 01:53:18;;;;;;;28.08;12.18;;;14.60;99.90;;;;;;5126578;28;20169;-72
2021/07/01 01:55:44;;;;;;;25.40;12.65;;;14.60;99.90;;;;;;5127284;28;20171;-73
2021/07/01 01:58:10;;;;;;;23.60;13.70;;;14.60;99.90;;;;;;5126868;28;20197;-72
2021/07/01 02:00:36;;;;;;;24.88;12.70;;;14.60;99.90;;;;;;5106158;28;20155;-73
2021/07/01 02:03:02;;;;;;;22.52;12.50;;;14.70;99.90;;;;;;5126466;28;20163;-72
2021/07/01 02:05:28;;;;;;;26.27;13.55;;;14.60;99.90;;;;;;5126899;28;20150;-73
2021/07/01 02:07:54;;;;;;;30.27;13.73;;;14.50;99.90;;;;;;5126207;28;20154;-73
2021/07/01 02:10:25;;;;;;;29.52;13.98;;;14.40;99.90;;;;;;5125312;28;20146;-72
2021/07/01 02:12:51;;;;;;;22.52;13.55;;;14.30;99.90;;;;;;5126314;28;20181;-73
2021/07/01 02:15:21;;;;;;;30.10;14.48;;;14.30;99.90;;;;;;5126680;28;20625;-72
2021/07/01 02:17:47;;;;;;;31.17;15.60;;;14.40;99.90;;;;;;5126660;28;20208;-72
2021/07/01 02:20:15;;;;;;;27.38;15.35;;;14.30;99.90;;;;;;5125816;28;20155;-72
2021/07/01 02:22:42;;;;;;;26.52;15.63;;;14.30;99.90;;;;;;5124954;28;20198;-72
2021/07/01 02:25:09;;;;;;;28.95;15.05;;;14.20;99.90;;;;;;5126509;28;20150;-73
2021/07/01 02:27:36;;;;;;;34.85;16.38;;;14.10;99.90;;;;;;5126628;28;20197;-73
2021/07/01 02:30:05;;;;;;;30.45;14.82;;;14.30;99.90;;;;;;5126656;28;20159;-73
2021/07/01 02:32:30;;;;;;;30.35;13.95;;;14.30;99.90;;;;;;5105264;28;20224;-72
2021/07/01 02:34:56;;;;;;;31.02;16.15;;;14.20;99.90;;;;;;5126479;28;20302;-73
2021/07/01 02:37:23;;;;;;;29.25;15.18;;;14.30;99.90;;;;;;5126314;28;20649;-73
2021/07/01 02:39:49;;;;;;;37.85;15.63;;;14.20;99.90;;;;;;5126138;28;20171;-72
2021/07/01 02:42:15;;;;;;;29.92;15.48;;;14.30;99.90;;;;;;5105389;28;20174;-73
2021/07/01 02:44:40;;;;;;;32.25;15.63;;;14.40;99.90;;;;;;5108054;28;20279;-73
2021/07/01 02:47:06;;;;;;;32.03;16.20;;;14.40;99.90;;;;;;5126376;28;20236;-73
2021/07/01 02:49:32;;;;;;;27.73;15.68;;;14.50;99.90;;;;;;5126699;28;20162;-73
2021/07/01 02:51:57;;;;;;;34.20;16.65;;;14.40;99.90;;;;;;5123707;28;20600;-73
2021/07/01 02:54:23;;;;;;;17.92;14.20;;;14.30;99.90;;;;;;5107626;28;20242;-72
2021/07/01 02:56:49;;;;;;;35.97;15.13;;;14.30;99.90;;;;;;5126289;28;20213;-72
2021/07/01 02:59:16;;;;;;;33.47;15.00;;;14.40;99.90;;;;;;5126089;28;20241;-73
2021/07/01 03:01:50;;;;;;;26.05;14.40;;;14.40;99.90;;;;;;5123529;28;20175;-73
2021/07/01 03:04:16;;;;;;;30.38;14.60;;;14.30;99.90;;;;;;5126146;28;20158;-73
2021/07/01 03:06:43;;;;;;;27.20;15.48;;;14.40;99.90;;;;;;5126318;28;20680;-73
2021/07/01 03:09:09;;;;;;;29.90;14.63;;;14.30;99.90;;;;;;5107383;28;20178;-73
2021/07/01 03:11:36;;;;;;;34.45;15.00;;;14.30;99.90;;;;;;5123407;28;20241;-72
2021/07/01 03:14:03;;;;;;;19.85;13.50;;;14.30;99.90;;;;;;5127762;28;20524;-73
2021/07/01 03:16:28;;;;;;;27.20;15.57;;;14.30;99.90;;;;;;5111719;28;20174;-72
2021/07/01 03:18:54;;;;;;;26.42;14.52;;;14.30;99.90;;;;;;5130283;28;20162;-73
2021/07/01 03:21:21;;;;;;;33.90;14.15;;;14.30;99.90;;;;;;5127182;28;20257;-72
2021/07/01 03:23:47;;;;;;;20.38;13.10;;;14.20;99.90;;;;;;5129654;28;20167;-73
2021/07/01 03:26:15;;;;;;;28.20;14.07;;;14.30;99.90;;;;;;5129892;28;20157;-72
2021/07/01 03:28:41;;;;;;;35.58;13.57;;;14.30;99.90;;;;;;5130013;28;20198;-73
2021/07/01 03:31:07;;;;;;;24.00;13.75;;;14.40;99.90;;;;;;5127299;28;20159;-72
2021/07/01 03:33:34;;;;;;;25.20;13.45;;;14.30;99.90;;;;;;5129849;28;20259;-72
2021/07/01 03:36:00;;;;;;;23.52;12.48;;;14.40;99.90;;;;;;5111530;28;20162;-72
2021/07/01 03:38:26;;;;;;;29.15;12.48;;;14.50;99.90;;;;;;5129276;28;20201;-72
2021/07/01 03:40:52;;;;;;;28.30;12.73;;;14.40;99.90;;;;;;5127146;28;20218;-73
2021/07/01 03:43:18;;;;;;;22.52;12.18;;;14.40;99.90;;;;;;5111415;28;20171;-73
2021/07/01 03:45:44;;;;;;;22.20;12.68;;;14.40;99.90;;;;;;5111195;28;20249;-72
2021/07/01 03:48:11;;;;;;;22.23;12.02;;;14.40;99.90;;;;;;5129593;28;20647;-73
2021/07/01 03:50:37;;;;;;;25.73;13.13;;;14.30;99.90;;;;;;5127036;28;20159;-72
2021/07/01 03:53:02;;;;;;;26.92;12.48;;;14.30;99.90;;;;;;5129277;28;20166;-72
2021/07/01 03:55:28;;;;;;;27.42;11.80;;;14.30;99.90;;;;;;5111093;28;20191;-72
2021/07/01 03:57:54;;;;;;;18.92;12.00;;;14.40;99.90;;;;;;5129302;28;20202;-73
2021/07/01 04:00:19;;;;;;;24.15;12.05;;;14.30;99.90;;;;;;5109501;28;20163;-73
2021/07/01 04:02:47;;;;;;;31.33;12.60;;;14.20;99.90;;;;;;5109873;28;20190;-73
2021/07/01 04:05:13;;;;;;;29.02;12.35;;;14.30;99.90;;;;;;5128899;28;20178;-73
2021/07/01 04:07:38;;;;;;;27.38;12.85;;;14.40;99.90;;;;;;5129173;28;20215;-73
2021/07/01 04:10:11;;;;;;;20.55;12.68;;;14.40;99.90;;;;;;5128865;28;20171;-72
2021/07/01 04:12:37;;;;;;;30.45;12.43;;;14.50;99.90;;;;;;5127032;28;20220;-72
2021/07/01 04:15:04;;;;;;;23.80;12.63;;;14.50;99.90;;;;;;5129092;28;20502;-73
2021/07/01 04:17:30;;;;;;;24.50;12.57;;;14.40;99.90;;;;;;5129316;28;20216;-72
2021/07/01 04:19:56;;;;;;;26.33;12.88;;;14.50;99.90;;;;;;5128880;28;20162;-72
2021/07/01 04:22:21;;;;;;;24.38;11.98;;;14.40;99.90;;;;;;5107656;28;20203;-72
2021/07/01 04:24:47;;;;;;;22.88;11.32;;;14.50;99.90;;;;;;5128334;28;20166;-72
2021/07/01 04:27:13;;;;;;;20.48;11.52;;;14.50;99.90;;;;;;5128713;28;20159;-73
2021/07/01 04:29:40;;;;;;;26.75;12.23;;;14.50;99.90;;;;;;5110444;28;20254;-72
2021/07/01 04:32:06;;;;;;;21.30;11.77;;;14.50;99.90;;;;;;5125613;28;20214;-72
2021/07/01 04:34:32;;;;;;;22.80;11.43;;;14.50;99.90;;;;;;5128796;28;20170;-73
2021/07/01 04:36:57;;;;;;;20.77;11.43;;;14.60;99.90;;;;;;5110316;28;20249;-73
2021/07/01 04:39:24;;;;;;;20.08;10.93;;;14.50;99.90;;;;;;5128375;28;20174;-73
2021/07/01 04:41:49;;;;;;;33.85;12.00;;;14.50;99.90;;;;;;5125801;28;20159;-72
2021/07/01 04:44:15;;;;;;;18.67;10.50;;;14.60;99.90;;;;;;5128305;28;20159;-72
2021/07/01 04:46:41;;;;;;;19.48;10.70;;;14.70;99.90;;;;;;5128550;28;20712;-73
2021/07/01 04:49:06;;;;;;;21.10;10.43;;;14.60;99.90;;;;;;5128241;28;20186;-72
2021/07/01 04:51:32;;;;;;;16.02;10.55;;;14.80;99.90;;;;;;5125565;28;20687;-72
2021/07/01 04:53:58;;;;;;;23.13;10.30;;;14.80;99.90;;;;;;5127892;28;20178;-72
2021/07/01 04:56:24;;;;;;;22.27;10.60;;;14.90;99.90;;;;;;5128140;28;20194;-72
2021/07/01 04:58:49;;;;;;;25.58;10.93;;;15.00;99.90;;;;;;5128129;28;20190;-72
2021/07/01 05:01:15;;;;;;;20.95;10.55;;;14.90;99.90;;;;;;5125322;28;20220;-72
2021/07/01 05:03:41;;;;;;;21.30;10.50;;;14.90;99.90;;;;;;5127993;28;20167;-72
2021/07/01 05:06:06;;;;;;;23.05;10.70;;;15.00;99.90;;;;;;5127808;28;20155;-72
2021/07/01 05:08:32;;;;;;;17.98;10.65;;;14.90;99.90;;;;;;5109486;28;20166;-72
2021/07/01 05:10:58;;;;;;;14.23;9.35;;;14.90;99.90;;;;;;5125261;28;20716;-72
2021/07/01 05:13:24;;;;;;;24.92;9.68;;;14.80;99.90;;;;;;5127574;28;20202;-72
2021/07/01 05:15:50;;;;;;;15.07;9.52;;;14.90;99.90;;;;;;5127885;28;20158;-72
2021/07/01 05:18:16;;;;;;;16.98;9.65;;;14.80;99.90;;;;;;5127491;28;20747;-72
2021/07/01 05:20:44;;;;;;;21.35;10.00;;;14.80;99.90;;;;;;5124954;28;20166;-72
2021/07/01 05:23:10;;;;;;;23.38;10.32;;;14.80;99.90;;;;;;5126964;28;20230;-72
2021/07/01 05:25:36;;;;;;;20.55;9.45;;;14.80;99.90;;;;;;5127738;28;20169;-72
2021/07/01 05:28:12;;;;;;;16.67;9.10;;;14.90;99.90;;;;;;5127635;28;20234;-72
2021/07/01 05:30:38;;;;;;;19.20;9.20;;;14.90;99.90;;;;;;5124670;28;20165;-72
2021/07/01 05:33:04;;;;;;;19.67;8.95;;;14.90;99.90;;;;;;5108779;28;20210;-72
2021/07/01 05:35:30;;;;;;;19.83;9.45;;;14.80;99.90;;;;;;5127305;28;20183;-72
2021/07/01 05:37:56;;;;;;;15.85;9.48;;;14.70;99.90;;;;;;5126408;28;20213;-71
2021/07/01 05:40:22;;;;;;;19.92;9.02;;;14.90;99.90;;;;;;5125346;28;20162;-72
2021/07/01 05:42:48;;;;;;;17.73;9.27;;;14.90;99.90;;;;;;5126353;28;20189;-72
2021/07/01 05:45:14;;;;;;;15.15;8.55;;;14.80;99.90;;;;;;5108960;28;20170;-72
2021/07/01 05:47:41;;;;;;;16.02;9.68;;;14.90;99.90;;;;;;5127190;28;20580;-72
2021/07/01 05:50:10;;;;;;;18.48;9.60;;;15.00;99.90;;;;;;5126747;28;20166;-72
2021/07/01 05:52:38;;;;;;;16.85;9.38;;;15.00;99.90;;;;;;5125139;28;20174;-72
2021/07/01 05:55:05;;;;;;;15.25;8.48;;;15.00;99.90;;;;;;5108372;28;20173;-72
2021/07/01 05:57:30;;;;;;;15.23;9.07;;;15.00;99.90;;;;;;5126672;28;20228;-72
2021/07/01 05:59:56;;;;;;;19.15;9.02;;;15.00;99.90;;;;;;5126938;28;20162;-71
2021/07/01 06:02:22;;;;;;;21.70;9.05;;;15.00;99.90;;;;;;5105823;28;20166;-72
2021/07/01 06:04:48;;;;;;;15.65;8.18;;;14.90;99.90;;;;;;5108627;28;20643;-72
2021/07/01 06:07:19;;;;;;;15.73;8.05;;;15.00;99.90;;;;;;5126645;28;20178;-72
2021/07/01 06:09:47;;;;;;;21.73;7.95;;;15.00;99.90;;;;;;5126605;28;20200;-72
2021/07/01 06:12:14;;;;;;;13.68;6.90;;;14.90;99.90;;;;;;5123987;28;20163;-72
2021/07/01 06:14:41;;;;;;;11.80;6.55;;;14.80;99.90;;;;;;5125737;28;20483;-72
2021/07/01 06:17:07;;;;;;;10.80;6.20;;;14.70;99.90;;;;;;5126393;28;20183;-72
2021/07/01 06:19:34;;;;;;;10.57;5.53;;;14.50;99.90;;;;;;5126697;28;20175;-72
2021/07/01 06:22:00;;;;;;;17.42;6.95;;;14.40;99.90;;;;;;5123968;28;20162;-72
2021/07/01 06:24:26;;;;;;;10.40;5.88;;;14.10;99.90;;;;;;5107830;28;20377;-71
2021/07/01 06:26:52;;;;;;;11.93;5.05;;;14.10;99.90;;;;;;5126641;28;20160;-72
2021/07/01 06:29:18;;;;;;;19.02;7.60;;;14.00;99.90;;;;;;5126201;28;20177;-72
2021/07/01 06:31:44;;;;;;;24.30;7.43;;;14.10;99.90;;;;;;5123180;28;20171;-71
2021/07/01 06:34:10;;;;;;;19.90;7.35;;;14.10;99.90;;;;;;5126449;28;20193;-72
2021/07/01 06:36:40;;;;;;;23.67;7.40;;;14.10;99.90;;;;;;5126473;28;20628;-72
2021/07/01 06:39:06;;;;;;;14.93;5.75;;;14.20;99.90;;;;;;5125896;28;20721;-72
2021/07/01 06:41:33;;;;;;;12.40;5.85;;;14.20;99.90;;;;;;5123606;28;20218;-72
2021/07/01 06:44:00;;;;;;;14.45;6.38;;;14.30;99.90;;;;;;5126195;28;20192;-72
2021/07/01 06:46:31;;;;;;;11.50;5.85;;;14.30;99.90;;;;;;5125967;28;20155;-72
2021/07/01 06:48:57;;;;;;;11.13;5.40;;;14.40;99.90;;;;;;5126262;28;20227;-72
2021/07/01 06:51:23;;;;;;;18.10;6.28;;;14.50;99.90;;;;;;5123344;28;20204;-72
2021/07/01 06:53:52;;;;;;;14.90;5.40;;;14.70;99.90;;;;;;5125487;28;20168;-72
2021/07/01 06:56:21;;;;;;;13.90;6.07;;;14.70;99.90;;;;;;5125887;28;20163;-72
2021/07/01 06:58:47;;;;;;;12.63;5.63;;;14.80;99.90;;;;;;5125914;28;20182;-72
2021/07/01 07:01:13;;;;;;;14.40;6.20;;;15.00;99.90;;;;;;5122938;28;20151;-72
2021/07/01 07:03:39;;;;;;;13.00;6.20;;;15.20;99.90;;;;;;5125330;28;20221;-72
2021/07/01 07:06:05;;;;;;;13.50;6.20;;;15.20;99.90;;;;;;5125089;28;20158;-72
2021/07/01 07:08:31;;;;;;;9.18;5.70;;;15.00;99.90;;;;;;5125639;28;20174;-71
2021/07/01 07:10:59;;;;;;;15.30;6.00;;;15.00;99.90;;;;;;5105116;28;20170;-72
2021/07/01 07:13:25;;;;;;;14.27;6.30;;;15.10;99.90;;;;;;5107259;28;20181;-72
2021/07/01 07:15:58;;;;;;;14.07;6.25;;;15.20;99.90;;;;;;5107621;28;20162;-72
2021/07/01 07:18:31;;;;;;;14.10;6.25;;;15.20;99.90;;;;;;5125513;28;20217;-72
2021/07/01 07:21:03;;;;;;;13.90;6.07;;;15.30;99.90;;;;;;5122995;28;20176;-70
2021/07/01 07:23:34;;;;;;;12.32;5.82;;;15.40;99.90;;;;;;5125079;28;20167;-69
2021/07/01 07:26:07;;;;;;;19.70;6.43;;;15.30;99.90;;;;;;5107584;28;20151;-70
2021/07/01 07:28:34;;;;;;;12.20;6.32;;;15.30;99.90;;;;;;5126037;28;20159;-69
2021/07/01 07:31:01;;;;;;;13.68;5.53;;;15.50;99.90;;;;;;5123115;28;20235;-69
2021/07/01 07:33:27;;;;;;;10.50;5.32;;;15.50;99.90;;;;;;5124902;28;20235;-69
2021/07/01 07:35:54;;;;;;;9.77;5.53;;;15.50;99.90;;;;;;5125502;28;20167;-69
2021/07/01 07:38:25;;;;;;;13.18;5.65;;;15.50;99.90;;;;;;5124993;28;20214;-69
2021/07/01 07:40:53;;;;;;;17.85;5.25;;;15.60;99.90;;;;;;5123064;28;20167;-69
2021/07/01 07:43:20;;;;;;;14.07;4.88;;;15.70;99.90;;;;;;5125600;28;20192;-69
2021/07/01 07:45:51;;;;;;;17.23;5.72;;;15.60;99.90;;;;;;5125671;28;20147;-70
2021/07/01 07:48:17;;;;;;;11.43;5.38;;;15.70;99.90;;;;;;5125505;28;20253;-70
2021/07/01 07:50:52;;;;;;;11.30;4.28;;;15.60;99.90;;;;;;5122467;28;20403;-69
2021/07/01 07:53:23;;;;;;;12.82;5.10;;;15.50;99.90;;;;;;5124726;28;20174;-69
2021/07/01 07:55:59;;;;;;;10.07;5.07;;;15.60;99.90;;;;;;5125505;28;20234;-69
2021/07/01 07:58:26;;;;;;;14.80;5.07;;;15.60;99.90;;;;;;5124871;28;20257;-69
2021/07/01 08:00:53;;;;;;;9.45;4.57;;;15.80;99.90;;;;;;5125695;28;20151;-70
2021/07/01 08:03:19;;;;;;;11.52;5.05;;;15.80;99.90;;;;;;5128665;28;20543;-70
2021/07/01 08:05:45;;;;;;;10.98;4.40;;;15.80;99.90;;;;;;5129238;28;20546;-70
2021/07/01 08:08:15;;;;;;;10.23;4.30;;;15.60;99.90;;;;;;5128407;28;20163;-70
2021/07/01 08:10:43;;;;;;;15.20;4.72;;;15.70;99.90;;;;;;5126517;28;20159;-69
2021/07/01 08:13:08;;;;;;;10.13;4.80;;;15.70;99.90;;;;;;5128370;28;20193;-70
2021/07/01 08:15:36;;;;;;;10.52;4.85;;;15.80;99.90;;;;;;5128776;28;20166;-69
2021/07/01 08:18:03;;;;;;;9.60;4.05;;;15.80;99.90;;;;;;5129025;28;20190;-69
2021/07/01 08:20:29;;;;;;;14.85;4.75;;;15.70;99.90;;;;;;5107537;28;20177;-69
2021/07/01 08:22:56;;;;;;;11.25;4.35;;;15.60;99.90;;;;;;5128199;28;20169;-69
2021/07/01 08:25:24;;;;;;;12.70;5.07;;;15.70;99.90;;;;;;5128024;28;20177;-70
2021/07/01 08:27:52;;;;;;;14.65;4.90;;;15.70;99.90;;;;;;5128507;28;20644;-70
2021/07/01 08:30:22;;;;;;;8.95;4.97;;;15.70;99.90;;;;;;5126480;28;20166;-69
2021/07/01 08:32:53;;;;;;;11.73;4.38;;;15.80;99.90;;;;;;5109058;28;20222;-69
2021/07/01 08:35:22;;;;;;;14.38;4.78;;;15.80;99.90;;;;;;5110160;28;20226;-69
2021/07/01 08:37:50;;;;;;;9.23;4.65;;;15.80;99.90;;;;;;5109891;28;20196;-69
2021/07/01 08:40:18;;;;;;;12.90;5.00;;;15.70;99.90;;;;;;5126508;28;20195;-69
2021/07/01 08:42:44;;;;;;;14.10;5.20;;;15.80;99.90;;;;;;5127046;28;20159;-69
2021/07/01 08:45:14;;;;;;;11.43;5.32;;;15.90;99.90;;;;;;5128053;28;20159;-69
2021/07/01 08:47:42;;;;;;;13.70;5.32;;;15.80;99.90;;;;;;5128279;28;20501;-69
2021/07/01 08:50:15;;;;;;;13.13;5.05;;;15.60;99.90;;;;;;5127922;28;20162;-69
2021/07/01 08:53:05;;;;;;;14.38;5.38;;;15.60;99.90;;;;;;5108158;28;20179;-70
2021/07/01 08:55:31;;;;;;;8.25;4.97;;;15.90;99.90;;;;;;5127137;28;20177;-69
2021/07/01 08:57:58;;;;;;;15.52;4.88;;;15.80;99.90;;;;;;5127736;28;20190;-69
2021/07/01 09:00:26;;;;;;;10.98;4.78;;;15.80;99.90;;;;;;5107763;28;20165;-69
2021/07/01 09:03:04;;;;;;;11.60;5.93;;;15.90;99.90;;;;;;5127647;28;20172;-69
2021/07/01 09:05:32;;;;;;;15.82;5.47;;;16.00;99.90;;;;;;5128145;28;20245;-69
2021/07/01 09:08:00;;;;;;;16.27;5.22;;;16.00;99.90;;;;;;5127175;28;20665;-69
2021/07/01 09:10:29;;;;;;;11.18;4.35;;;16.10;99.90;;;;;;5124421;28;20163;-69
2021/07/01 09:12:57;;;;;;;14.45;4.80;;;16.00;99.90;;;;;;5126663;28;20162;-68
2021/07/01 09:15:25;;;;;;;14.82;5.13;;;16.10;99.90;;;;;;5127360;28;20171;-70
2021/07/01 09:17:52;;;;;;;9.95;4.47;;;16.20;99.90;;;;;;5127652;28;20190;-70
2021/07/01 09:20:24;;;;;;;15.48;5.35;;;16.30;99.90;;;;;;5126163;28;20644;-70
2021/07/01 09:22:53;;;;;;;19.48;5.28;;;16.30;99.90;;;;;;5126562;28;20276;-70
2021/07/01 09:25:19;;;;;;;13.00;5.57;;;16.50;99.90;;;;;;5126756;28;20169;-70
2021/07/01 09:27:48;;;;;;;12.07;4.93;;;16.60;99.90;;;;;;5126819;28;20163;-70
2021/07/01 09:30:16;;;;;;;13.02;5.10;;;16.70;99.90;;;;;;5126293;28;20167;-70
2021/07/01 09:32:43;;;;;;;13.80;4.57;;;16.70;99.90;;;;;;5106324;28;20206;-69
2021/07/01 09:35:11;;;;;;;10.90;4.47;;;16.60;99.90;;;;;;5127295;28;20173;-69
2021/07/01 09:37:47;;;;;;;20.48;5.03;;;16.50;99.90;;;;;;5127383;28;20556;-70
2021/07/01 09:40:15;;;;;;;17.88;4.60;;;16.70;99.90;;;;;;5125235;28;20212;-69
2021/07/01 09:42:41;;;;;;;10.95;4.20;;;16.70;99.90;;;;;;5125253;28;20648;-69
2021/07/01 09:45:12;;;;;;;10.27;4.63;;;16.60;99.90;;;;;;5126665;28;20220;-70
2021/07/01 09:47:45;;;;;;;16.98;5.07;;;16.70;99.90;;;;;;5127072;28;20175;-70
2021/07/01 09:50:11;;;;;;;14.05;5.03;;;16.90;99.90;;;;;;5126210;28;20241;-70
2021/07/01 09:52:43;;;;;;;11.98;5.13;;;16.90;99.90;;;;;;5105980;28;20559;-70
2021/07/01 09:55:10;;;;;;;7.88;5.03;;;16.80;99.90;;;;;;5126031;28;20193;-69
2021/07/01 09:57:39;;;;;;;15.35;4.97;;;16.80;99.90;;;;;;5126943;28;20273;-70
2021/07/01 10:00:04;;;;;;;11.20;4.22;;;16.80;99.90;;;;;;5127006;28;20179;-70
2021/07/01 10:02:30;;;;;;;10.40;4.90;;;16.80;99.90;;;;;;5124271;28;20170;-70
2021/07/01 10:04:57;;;;;;;15.85;4.68;;;16.90;99.90;;;;;;5126919;28;20159;-70
2021/07/01 10:07:24;;;;;;;13.63;5.18;;;17.20;99.90;;;;;;5126801;28;20162;-70
2021/07/01 10:09:55;;;;;;;20.02;5.65;;;17.20;99.90;;;;;;5126374;28;20193;-69
2021/07/01 10:12:27;;;;;;;16.42;4.65;;;17.20;99.90;;;;;;5123417;28;20163;-70
2021/07/01 10:14:58;;;;;;;12.52;4.28;;;17.40;99.90;;;;;;5126678;28;20159;-70
2021/07/01 10:17:25;;;;;;;21.67;4.65;;;17.60;99.90;;;;;;5126257;28;20178;-70
2021/07/01 10:20:07;;;;;;;21.33;4.90;;;17.60;99.90;;;;;;5108021;28;20186;-69
2021/07/01 10:22:40;;;;;;;14.38;4.63;;;17.30;99.90;;;;;;5123910;28;20201;-69
2021/07/01 10:25:08;;;;;;;12.25;4.50;;;17.20;99.90;;;;;;5107846;28;20183;-70
2021/07/01 10:27:42;;;;;;;11.65;4.43;;;17.10;99.90;;;;;;5126563;28;20562;-69
2021/07/01 10:30:21;;;;;;;13.27;4.30;;;16.90;99.90;;;;;;5126012;28;20162;-69
2021/07/01 10:32:49;;;;;;;15.18;4.80;;;17.00;99.90;;;;;;5124821;28;20214;-69
2021/07/01 10:35:30;;;;;;;18.98;4.90;;;17.00;99.90;;;;;;5126035;28;20543;-70
2021/07/01 10:38:04;;;;;;;14.82;5.15;;;17.00;99.90;;;;;;5126441;28;20385;-70
2021/07/01 10:40:36;;;;;;;16.13;5.45;;;17.10;99.90;;;;;;5123078;28;20213;-69
2021/07/01 10:43:02;;;;;;;16.60;5.05;;;17.20;99.90;;;;;;5126200;28;20166;-70
2021/07/01 10:45:28;;;;;;;18.17;4.80;;;17.30;99.90;;;;;;5107804;28;20230;-69
2021/07/01 10:48:12;;;;;;;11.15;4.70;;;17.50;99.90;;;;;;5107649;28;20173;-70
2021/07/01 10:50:38;;;;;;;7.25;3.85;;;17.70;99.90;;;;;;5123501;28;20173;-69
2021/07/01 10:53:30;;;;;;;9.93;4.35;;;17.80;99.90;;;;;;5126247;28;20167;-70
2021/07/01 10:56:00;;;;;;;6.82;4.50;;;18.00;99.90;;;;;;5126215;28;20245;-70
2021/07/01 10:58:26;;;;;;;7.72;4.15;;;17.70;99.90;;;;;;5107518;28;20190;-69
2021/07/01 11:00:52;;;;;;;11.80;3.92;;;17.80;99.90;;;;;;5123419;28;20163;-69
2021/07/01 11:03:25;;;;;;;10.18;4.05;;;17.90;99.90;;;;;;5125628;28;20163;-69
2021/07/01 11:05:52;;;;;;;12.80;4.35;;;18.00;99.90;;;;;;5125950;28;20166;-70
2021/07/01 11:08:30;;;;;;;18.42;5.25;;;18.00;99.90;;;;;;5126000;28;20166;-70
2021/07/01 11:10:57;;;;;;;10.20;4.78;;;18.10;99.90;;;;;;5123433;28;20252;-69
2021/07/01 11:13:25;;;;;;;18.42;5.43;;;17.80;99.90;;;;;;5125705;28;20178;-70
2021/07/01 11:16:00;;;;;;;13.13;5.28;;;18.00;99.90;;;;;;5125586;28;20159;-70
2021/07/01 11:18:34;;;;;;;19.50;5.43;;;18.10;99.90;;;;;;5125787;28;20206;-70
2021/07/01 11:21:10;;;;;;;9.25;4.95;;;18.10;99.90;;;;;;5123225;28;20178;-69
2021/07/01 11:23:37;;;;;;;17.95;5.45;;;18.10;99.90;;;;;;5125603;28;20198;-69
2021/07/01 11:26:20;;;;;;;11.02;5.30;;;17.60;99.90;;;;;;5107657;28;20170;-69
2021/07/01 11:28:46;;;;;;;11.70;5.35;;;17.50;99.90;;;;;;5125860;28;20176;-69
2021/07/01 11:31:11;;;;;;;12.20;4.68;;;17.40;99.90;;;;;;5123063;28;20159;-70
2021/07/01 11:33:37;;;;;;;10.02;4.93;;;17.30;99.90;;;;;;5125612;28;20214;-70
2021/07/01 11:36:12;;;;;;;14.40;5.78;;;17.40;99.90;;;;;;5129019;28;20170;-69
2021/07/01 11:38:39;;;;;;;18.13;5.60;;;17.60;99.90;;;;;;5129420;28;20190;-70
2021/07/01 11:41:05;;;;;;;8.30;4.95;;;17.80;99.90;;;;;;5127174;28;20659;-69
2021/07/01 11:43:33;;;;;;;19.67;5.43;;;18.20;99.90;;;;;;5111127;28;20174;-69
2021/07/01 11:45:59;;;;;;;12.13;4.53;;;18.30;99.90;;;;;;5129467;28;20222;-70
2021/07/01 11:48:27;;;;;;;13.90;5.57;;;18.60;99.90;;;;;;5129120;28;20167;-70
2021/07/01 11:50:54;;;;;;;18.00;5.10;;;18.50;99.90;;;;;;5126751;28;20163;-70
2021/07/01 11:53:23;;;;;;;15.15;4.70;;;18.60;99.90;;;;;;5129133;28;20178;-70
2021/07/01 11:55:50;;;;;;;19.85;4.70;;;18.40;99.90;;;;;;5128549;28;20511;-69
2021/07/01 11:58:16;;;;;;;14.73;5.05;;;17.80;99.90;;;;;;5128081;28;20187;-69
2021/07/01 12:00:43;;;;;;;13.57;5.20;;;17.60;99.90;;;;;;5126792;28;20179;-69
2021/07/01 12:03:13;;;;;;;19.40;5.05;;;17.50;99.90;;;;;;5110356;28;20166;-70
2021/07/01 12:05:44;;;;;;;7.75;4.07;;;17.60;99.90;;;;;;5129236;28;20246;-70
2021/07/01 12:08:11;;;;;;;7.32;4.60;;;17.40;99.90;;;;;;5128864;28;20167;-70
2021/07/01 12:10:37;;;;;;;12.77;4.47;;;17.30;99.90;;;;;;5107951;28;20718;-70
2021/07/01 12:13:23;;;;;;;10.95;4.63;;;17.30;99.90;;;;;;5128978;28;20171;-69
2021/07/01 12:16:19;;;;;;;12.13;4.35;;;17.40;99.90;;;;;;5128927;28;20209;-70
2021/07/01 12:18:48;;;;;;;13.93;4.63;;;17.30;99.90;;;;;;5107436;28;20210;-70
2021/07/01 12:21:24;;;;;;;15.15;4.88;;;17.20;99.90;;;;;;5126085;28;20226;-70
2021/07/01 12:24:01;;;;;;;9.82;4.97;;;17.20;99.90;;;;;;5127649;28;20407;-70
2021/07/01 12:26:36;;;;;;;10.18;5.43;;;17.80;99.90;;;;;;5128502;28;20166;-70
2021/07/01 12:29:05;;;;;;;14.35;4.90;;;17.50;99.90;;;;;;5128566;28;20170;-71
2021/07/01 12:31:32;;;;;;;9.93;4.80;;;17.60;99.90;;;;;;5107958;28;20196;-72
2021/07/01 12:34:25;;;;;;;9.25;4.82;;;18.00;99.90;;;;;;5128583;28;20214;-71
2021/07/01 12:36:59;;;;;;;10.93;4.35;;;18.50;99.90;;;;;;5105338;28;20277;-71